Silver Valley, Texas
Current Conditions -  °F | °C
As of 3:15 AM on Thursday 18 Dec 2014 (Local Time) from KCOM Reporting Station
Moderate Fog Moderate Fog  
Wind Chill: 50°   Ceiling: 300
Heat Index: 50°   Visibility: 0.5mi
Dew Point: 50°   Wind: 3mph
Humidity: 100%   Direction: 210°SSW
Pressure: 30.08"   Gusts: NA
Location:  31.8779°N, 99.43°W
Report Text: KCOM 180915Z AUTO 21003KT 1/2SM FG OVC003 10/10 A3008 RMK AO2 T01000100
Loading
Personal Weather Stations






























Interactive Weather Map New forecast layout! Learn more

10-Day Weather Forecast

Advertisements
Track Severe Weather on mobile